Terminal Aerodrome Forecast
Issued by NWS Charleston, WV

Current Version | Previous Version | Graphics & Text | Print | Product List | Glossary On
Versions: 1 2 3 4 5 6 7 8 9 10 11 12 13 14 15 16 17 18 19 20 21 22
000
FTUS41 KRLX 282102 AAA
TAFPKB
TAF AMD
KPKB 282102Z 2821/2918 14004KT P6SM VCSH FEW045
     FM290000 00000KT P6SM BKN045
     FM291000 00000KT 4SM BR BKN050
     FM291100 00000KT 1SM BR BKN001
     FM291200 00000KT 5SM BR BKN050
     FM291300 00000KT P6SM BKN050=

USA.gov is the U.S. government's official web portal to all federal, state and local government web resources and services.